VILANOVA DE SAU (Osona)





Hora UTC 17:50
Temperatura 13.4 ºC
Humitat 80.8 %
Pressió 1011.5 hPa
Pluja 0.0 mm
Velocitat vent 6.2 km/h
Direcció vent NE
Radiació solar 21.1 W/m²

Dades diàries 2024-04-16



Hora UTC (hivern +1h; estiu +2h)
Temperatura (ºC) Humitat (%) Pressió (hPa) Velocitat vent (km/h) Precipitació (mm) Radiació solar (W/m²)
Hora UTC Aire Humitat Pressió Vel. Dir. Vel. Max Dir. Intent. màx 5 min. Rad. Sol.
00:05 10.4 78.9 1016.1 1.2 SW 1.2 SW 0.0 0.2
00:10 10.4 79.2 1016.0 1.8 WSW 6.1 WSW 0.0 0.2
00:15 10.3 79.3 1016.0 1.1 WSW 6.1 WSW 0.0 0.2
00:20 10.3 79.9 1015.9 0.9 WSW 3.4 WSW 0.0 0.2
00:25 10.2 80.3 1015.9 0.6 SW 3.4 SW 0.0 0.2
00:30 10.1 80.9 1015.8 1.6 SW 6.1 SW 0.0 0.2
00:35 9.9 81.3 1015.8 1.2 SW 6.1 SW 0.0 0.2
00:40 9.8 81.7 1015.7 0.0 NNE 0.0 SW 0.0 0.1
00:45 9.8 82.2 1015.7 0.6 SW 3.4 SW 0.0 0.1
00:50 9.8 82.4 1015.7 0.7 WSW 3.4 SW 0.0 0.2
00:55 9.7 82.9 1015.6 2.4 WSW 6.1 WSW 0.0 0.2
01:00 9.7 83.3 1015.5 1.9 WSW 6.1 WSW 0.0 0.1
01:05 9.8 82.7 1015.5 0.9 WSW 6.1 SW 0.0 0.2
01:10 9.6 83.3 1015.4 2.1 WSW 6.1 W 0.0 0.2
01:15 9.6 84.1 1015.3 0.8 WSW 3.4 W 0.0 0.2
01:20 9.5 84.1 1015.3 1.2 SW 3.4 SW 0.0 0.2
01:25 9.4 84.6 1015.3 1.2 WSW 3.4 SW 0.0 0.2
01:30 9.3 84.4 1015.3 0.3 SW 6.1 SW 0.0 0.2
01:35 9.3 84.9 1015.2 1.0 SW 6.1 SW 0.0 0.2
01:40 9.2 85.2 1015.1 1.5 SW 6.1 SW 0.0 0.2
01:45 9.2 85.3 1015.1 2.0 WSW 6.1 WSW 0.0 0.2
01:50 9.1 85.6 1015.1 1.0 SW 3.4 SW 0.0 0.2
01:55 9.1 85.9 1015.1 0.4 SW 6.1 SW 0.0 0.1
02:00 8.9 86.1 1015.1 0.0 NNE 0.0 SW 0.0 0.2
02:05 8.8 86.5 1015.1 0.0 NNE 0.0 SW 0.0 0.1
02:10 8.7 87.1 1015.1 0.0 NNE 0.0 SW 0.0 0.2
02:15 8.6 87.7 1015.0 0.0 WSW 3.4 SW 0.0 0.2
02:20 8.5 87.8 1014.9 1.5 SW 3.4 WSW 0.0 0.1
02:25 8.4 88.2 1014.8 1.4 SW 3.4 SW 0.0 0.2
02:30 8.4 88.5 1014.7 2.4 SW 3.4 SW 0.0 0.2
02:35 8.5 88.8 1014.6 0.7 WSW 3.4 WSW 0.0 0.2
02:40 8.5 88.7 1014.6 0.0 WSW 3.4 WSW 0.0 0.2
02:45 8.5 88.9 1014.6 1.0 WSW 3.4 WSW 0.0 0.2
02:50 8.5 89.2 1014.6 0.6 SW 3.4 WSW 0.0 0.2
02:55 8.4 89.4 1014.7 0.0 NNE 0.0 SW 0.0 0.1
03:00 8.3 89.7 1014.7 0.0 NNE 0.0 SW 0.0 0.2
03:05 8.2 89.9 1014.7 0.0 NNE 0.0 SW 0.0 0.2
03:10 8.2 90.1 1014.7 0.0 NNE 0.0 SW 0.0 0.2
03:15 8.1 90.5 1014.7 1.7 SW 6.1 S 0.0 0.1
03:20 8.1 90.8 1014.8 1.9 SW 6.1 SSW 0.0 0.2
03:25 8.1 90.7 1014.7 3.3 SW 6.1 SW 0.0 0.1
03:30 8.1 90.7 1014.6 3.9 WSW 6.1 SW 0.0 0.2
03:35 8.1 90.6 1014.5 2.7 WSW 6.1 WSW 0.0 0.2
03:40 8.0 90.5 1014.4 0.5 SSW 3.4 SSW 0.0 0.2
03:45 7.9 90.8 1014.3 0.0 NNE 0.0 SSW 0.0 0.2
03:50 7.8 91.2 1014.2 0.5 SSW 3.4 SSW 0.0 0.2
03:55 7.7 91.3 1014.2 0.9 SW 3.4 SW 0.0 0.2
04:00 7.7 91.6 1014.1 0.0 NNE 0.0 SW 0.0 0.2
04:05 7.7 91.8 1014.0 0.0 NNE 0.0 SW 0.0 0.2
04:10 7.6 92.0 1014.1 0.0 NNE 0.0 SW 0.0 0.2
04:15 7.5 92.0 1014.1 0.0 NNE 0.0 SW 0.0 0.2
04:20 7.4 91.9 1014.1 0.0 NNE 0.0 NE 0.0 0.1
04:25 7.4 92.4 1014.2 0.0 NNE 3.4 N 0.0 0.2
04:30 7.6 92.9 1014.1 0.2 SSW 3.4 SW 0.0 0.2
04:35 7.6 92.7 1014.0 0.2 SSW 3.4 SSW 0.0 0.2
04:40 7.6 92.6 1014.0 0.0 NNE 0.0 SW 0.0 0.2
04:45 7.5 92.7 1014.2 0.0 NNE 0.0 WSW 0.0 0.3
04:50 7.4 92.8 1014.3 0.0 NNE 0.0 WSW 0.0 0.5
04:55 7.4 92.9 1014.3 0.0 NNE 0.0 E 0.0 0.9
05:00 7.3 92.8 1014.4 0.0 NNE 0.0 ENE 0.0 1.8
05:05 7.3 92.8 1014.6 0.0 NNE 0.0 ENE 0.0 2.9
05:10 7.2 92.8 1014.6 0.0 NNE 0.0 W 0.0 4.2
05:15 7.1 92.8 1014.5 0.0 NNE 0.0 SW 0.0 6.4
05:20 7.0 92.9 1014.4 0.0 NNE 0.0 SW 0.0 8.3
05:25 7.1 93.2 1014.3 0.0 S 3.4 S 0.0 17.3
05:30 7.2 93.0 1014.2 2.8 S 6.1 SSE 0.0 35.0
05:35 7.7 92.2 1014.4 0.7 E 6.1 E 0.0 50.3
05:40 8.3 89.4 1014.2 0.7 SSE 3.4 SE 0.0 59.8
05:45 8.6 86.6 1014.4 0.5 W 3.4 S 0.0 88.1
05:50 9.3 84.3 1014.4 0.3 NNE 6.1 N 0.0 119.4
05:55 9.7 82.7 1014.3 1.6 N 6.1 N 0.0 122.1
06:00 10.2 81.5 1014.2 0.0 NE 3.4 NE 0.0 122.5
06:05 10.6 79.3 1014.3 0.1 ENE 3.4 ENE 0.0 142.8
06:10 11.3 76.4 1014.4 0.0 NNE 0.0 NNE 0.0 140.6
06:15 11.4 73.4 1014.4 2.8 NE 6.1 NNE 0.0 125.6
06:20 10.9 77.9 1014.4 3.4 ENE 8.8 NE 0.0 121.5
06:25 10.5 80.6 1014.3 3.9 E 8.8 ENE 0.0 161.8
06:30 10.4 80.5 1014.3 5.4 E 8.8 E 0.0 218.5
06:35 10.5 79.1 1014.3 4.8 ENE 8.8 ENE 0.0 206.4
06:40 10.7 77.8 1014.2 3.6 ENE 6.1 ENE 0.0 225.0
06:45 11.2 76.2 1014.2 2.6 ENE 6.1 ENE 0.0 241.8
06:50 11.7 72.7 1014.2 1.4 ENE 6.1 E 0.0 252.2
06:55 12.3 69.3 1014.1 2.5 ESE 6.1 SE 0.0 171.1
07:00 12.0 69.7 1014.1 1.7 E 3.4 ESE 0.0 234.4
07:05 12.3 69.5 1014.1 2.4 ENE 6.1 E 0.0 320.5
07:10 12.5 68.1 1014.1 2.5 NE 6.1 ENE 0.0 275.8
07:15 12.9 65.6 1014.0 2.6 WNW 8.8 WSW 0.0 340.5
07:20 13.0 63.2 1013.9 2.8 NW 8.8 NW 0.0 361.4
07:25 13.3 61.4 1013.8 2.6 W 11.5 WNW 0.0 376.5
07:30 13.3 61.6 1013.8 3.8 WNW 8.8 WNW 0.0 392.3
07:35 13.6 61.3 1013.8 2.1 N 8.8 NNE 0.0 409.3
07:40 14.1 60.7 1013.9 3.7 NE 8.8 N 0.0 424.1
07:45 14.2 59.7 1013.9 4.6 NW 8.8 NNE 0.0 435.7
07:50 14.6 59.5 1013.9 1.6 N 6.1 WSW 0.0 455.2
07:55 15.1 57.4 1013.9 4.8 NE 11.5 ENE 0.0 468.9
08:00 14.5 58.3 1013.8 5.3 NE 11.5 NNE 0.0 485.0
08:05 14.2 59.5 1013.8 4.4 NE 8.8 E 0.0 507.7
08:10 14.9 57.9 1013.8 3.1 N 11.5 NNE 0.0 528.8
08:15 14.9 56.9 1013.8 2.1 NE 8.8 NE 0.0 553.2
08:20 15.3 57.1 1013.8 1.8 NE 8.8 N 0.0 446.2
08:25 15.3 56.4 1013.8 6.7 WNW 14.2 W 0.0 444.6
08:30 15.0 57.1 1013.8 1.1 N 8.8 NNW 0.0 189.9
08:35 14.5 59.2 1013.8 4.6 NE 11.5 NNE 0.0 195.5
08:40 14.1 61.0 1013.7 7.0 ENE 11.5 NNE 0.0 483.1
08:45 14.0 61.5 1013.7 8.8 ENE 14.2 E 0.0 672.3
08:50 14.3 61.1 1013.6 6.9 ENE 11.5 E 0.0 685.5
08:55 14.6 60.2 1013.6 5.0 E 11.5 E 0.0 697.6
09:00 15.0 59.0 1013.5 8.3 ENE 14.2 E 0.0 701.5
09:05 15.4 58.1 1013.5 6.8 ENE 11.5 ENE 0.0 684.9
09:10 16.1 57.1 1013.6 3.5 ENE 11.5 NNE 0.0 693.8
09:15 16.9 54.4 1013.6 4.8 NE 14.2 NNE 0.0 692.9
09:20 16.9 54.4 1013.7 5.8 NNE 14.2 NE 0.0 693.4
09:25 16.2 54.7 1013.6 7.6 WNW 14.2 NW 0.0 700.5
09:30 15.7 57.5 1013.6 5.5 N 11.5 SW 0.0 713.0
09:35 16.1 56.5 1013.6 5.7 NW 11.5 W 0.0 721.5
09:40 16.0 56.9 1013.6 4.5 NE 14.2 NE 0.0 733.1
09:45 17.1 55.5 1013.5 3.9 NE 8.8 E 0.0 745.1
09:50 17.0 54.7 1013.5 5.1 NNW 11.5 W 0.0 760.4
09:55 17.5 54.7 1013.4 3.9 NNW 11.5 NNE 0.0 742.9
10:00 17.4 53.0 1013.3 6.0 WSW 11.5 WSW 0.0 712.7
10:05 17.0 54.0 1013.3 6.7 WSW 14.2 WSW 0.0 739.7
10:10 16.9 54.3 1013.3 7.9 WSW 14.2 SW 0.0 739.3
10:15 16.6 55.5 1013.3 7.4 SW 16.9 SE 0.0 588.0
10:20 16.7 55.9 1013.2 6.2 WSW 14.2 W 0.0 675.6
10:25 17.1 56.4 1013.2 5.1 NNE 14.2 NW 0.0 467.1
10:30 17.2 55.5 1013.2 4.9 WSW 14.2 NW 0.0 300.8
10:35 16.9 56.1 1013.2 7.2 N 14.2 N 0.0 275.7
10:40 16.9 56.6 1013.1 6.0 N 14.2 NNE 0.0 815.0
10:45 17.6 54.6 1013.1 5.5 SSW 8.8 SSW 0.0 624.6
10:50 17.9 53.8 1013.0 5.7 S 14.2 S 0.0 787.4
10:55 18.3 52.5 1013.0 5.5 SSE 14.2 E 0.0 785.0
11:00 18.4 52.8 1012.9 6.0 SSW 11.5 SSW 0.0 894.0
11:05 19.2 50.3 1012.8 4.3 S 11.5 S 0.0 873.0
11:10 19.2 49.8 1012.7 3.1 SSE 11.5 S 0.0 852.0
11:15 18.7 50.3 1012.7 8.3 SW 16.9 WSW 0.0 866.0
11:20 17.7 53.1 1012.6 10.8 WSW 19.6 WSW 0.0 303.4
11:25 17.5 53.7 1012.5 7.3 SSW 16.9 WSW 0.0 553.2
11:30 18.3 51.9 1012.5 5.9 W 16.9 WNW 0.0 538.6
11:35 18.6 51.1 1012.4 7.9 NNE 19.6 N 0.0 710.8
11:40 18.9 50.3 1012.3 7.8 N 16.9 NNE 0.0 645.7
11:45 19.1 50.0 1012.3 7.4 WSW 19.6 SW 0.0 854.0
11:50 18.9 49.7 1012.2 5.5 SW 14.2 SSW 0.0 877.0
11:55 18.8 49.4 1012.1 3.6 W 11.5 SW 0.0 538.6
12:00 18.5 50.5 1012.0 4.1 ENE 8.8 E 0.0 199.6
12:05 18.6 50.8 1011.9 5.6 NE 16.9 NNE 0.0 342.0
12:10 18.8 50.7 1011.9 7.3 NNE 16.9 NW 0.0 779.1
12:15 19.0 49.4 1011.8 15.1 WSW 27.7 WNW 0.0 767.5
12:20 18.7 50.3 1011.8 8.6 SW 14.2 SW 0.0 890.0
12:25 19.0 49.1 1011.8 7.6 SW 25.0 SW 0.0 523.7
12:30 19.3 49.5 1011.8 7.9 SW 22.3 W 0.0 807.0
12:35 19.2 48.6 1011.8 8.1 W 19.6 WNW 0.0 874.0
12:40 19.6 48.0 1011.7 4.7 E 11.5 ENE 0.0 909.0
12:45 20.4 46.6 1011.6 7.3 NW 19.6 WNW 0.0 892.0
12:50 20.3 45.8 1011.6 7.0 SW 16.9 WSW 0.0 880.0
12:55 20.1 46.4 1011.6 6.3 SSE 11.5 SSE 0.0 435.4
13:00 19.9 45.0 1011.5 6.0 WSW 11.5 SW 0.0 447.1
13:05 19.8 45.9 1011.5 7.2 W 19.6 WNW 0.0 665.1
13:10 20.2 45.4 1011.4 3.7 SW 11.5 SW 0.0 737.3
13:15 20.8 42.9 1011.3 3.3 E 11.5 ESE 0.0 839.0
13:20 20.9 41.0 1011.3 8.5 SSW 16.9 SSW 0.0 806.0
13:25 21.1 41.0 1011.3 6.3 SSW 16.9 WSW 0.0 774.1
13:30 20.9 40.1 1011.2 6.8 ENE 11.5 ESE 0.0 759.9
13:35 21.2 40.2 1011.1 6.0 NNE 14.2 WNW 0.0 734.5
13:40 21.5 39.4 1011.1 9.1 W 19.6 SW 0.0 729.8
13:45 20.9 40.0 1011.0 9.4 WSW 22.3 W 0.0 714.6
13:50 20.7 41.1 1011.0 4.3 NE 14.2 N 0.0 704.1
13:55 20.9 39.8 1010.9 4.2 SE 14.2 SW 0.0 705.0
14:00 20.8 40.1 1010.9 4.1 N 19.6 WSW 0.0 697.3
14:05 21.1 39.1 1010.9 7.7 WSW 22.3 WSW 0.0 687.2
14:10 20.9 39.7 1010.8 5.8 NW 14.2 N 0.0 527.1
14:15 20.9 39.3 1010.7 4.0 NNE 14.2 NNE 0.0 691.1
14:20 21.1 43.7 1010.7 9.4 NNE 22.3 N 0.0 674.9
14:25 20.2 50.4 1010.6 13.1 NE 25.0 NE 0.0 661.6
14:30 19.9 52.3 1010.5 11.1 NE 22.3 NE 0.0 662.7
14:35 19.9 52.9 1010.5 12.1 ENE 22.3 NE 0.0 606.5
14:40 19.8 54.6 1010.6 8.8 ENE 16.9 NE 0.0 642.6
14:45 19.5 55.6 1010.6 10.6 NE 19.6 ENE 0.0 665.5
14:50 19.2 56.7 1010.5 11.5 NE 19.6 NNE 0.0 625.8
14:55 18.7 58.4 1010.6 11.5 ENE 19.6 ENE 0.0 580.9
15:00 18.2 59.9 1010.6 9.4 ENE 19.6 ENE 0.0 619.2
15:05 17.9 61.8 1010.6 9.3 E 22.3 ENE 0.0 369.5
15:10 17.7 62.2 1010.6 9.5 ENE 16.9 ENE 0.0 318.0
15:15 17.3 64.2 1010.6 9.8 E 22.3 ENE 0.0 330.4
15:20 16.8 66.2 1010.7 7.0 E 19.6 ESE 0.0 172.5
15:25 16.5 67.5 1010.7 9.1 E 19.6 ENE 0.0 179.7
15:30 16.0 69.6 1010.7 10.3 ENE 19.6 ENE 0.0 181.7
15:35 15.8 70.6 1010.7 8.8 E 19.6 ENE 0.0 279.5
15:40 16.4 68.5 1010.7 7.5 ESE 19.6 E 0.0 418.1
15:45 16.2 68.2 1010.6 8.5 E 16.9 ESE 0.0 164.1
15:50 16.0 69.1 1010.7 7.8 E 16.9 E 0.0 176.0
15:55 15.6 69.9 1010.7 8.6 E 16.9 ESE 0.0 260.9
16:00 15.7 69.7 1010.7 8.5 E 19.6 ESE 0.0 238.5
16:05 15.5 69.5 1010.8 7.2 E 16.9 ESE 0.0 166.1
16:10 15.3 69.6 1010.8 10.2 ENE 19.6 ENE 0.0 255.0
16:15 15.4 69.1 1010.8 9.4 ENE 19.6 ENE 0.0 274.9
16:20 15.1 69.5 1010.7 9.8 ENE 19.6 ENE 0.0 153.4
16:25 15.0 73.0 1010.7 9.6 NE 14.2 ENE 0.0 174.2
16:30 14.9 75.0 1010.8 9.2 NE 14.2 NE 0.0 176.4
16:35 14.9 75.7 1010.8 7.6 NE 14.2 NE 0.0 247.6
16:40 15.0 74.7 1010.7 9.9 NE 16.9 NNE 0.0 249.8
16:45 15.0 74.8 1010.8 9.2 NE 16.9 NNE 0.0 140.6
16:50 14.8 75.1 1010.8 10.6 NE 22.3 NNE 0.0 101.2
16:55 14.4 76.4 1010.9 10.4 NE 19.6 NE 0.0 87.8
17:00 14.1 77.7 1011.0 8.7 NE 14.2 ENE 0.0 58.3
17:05 14.1 77.8 1011.1 8.5 NNE 16.9 NNE 0.0 51.8
17:10 13.9 78.0 1011.2 9.1 NE 16.9 NE 0.0 39.3
17:15 13.9 78.3 1011.2 8.0 NE 14.2 ENE 0.0 38.0
17:20 13.8 78.5 1011.3 7.8 NE 16.9 NE 0.0 35.4
17:25 13.7 79.0 1011.3 7.8 NE 14.2 ENE 0.0 33.9
17:30 13.5 79.7 1011.3 7.3 ENE 14.2 NE 0.0 36.3
17:35 13.6 79.9 1011.3 7.7 NNE 14.2 NNE 0.0 37.5
17:40 13.6 79.8 1011.4 7.0 NNE 14.2 N 0.0 29.8
17:45 13.5 80.2 1011.5 5.7 NE 11.5 ENE 0.0 28.5
17:50 13.4 80.8 1011.5 6.2 NE 11.5 ENE 0.0 21.1
Màxima 21.6 93.2 1016.1 15.1 WSW 27.7 WNW 0.0 909.0
Mínima 7.0 39.1 1010.5
Total 0.0